Terminal Aerodrome Forecast
Issued by NWS

Home | Current Version | Previous Version | Text Only | Print | Product List | Glossary On
Versions: 1 2 3 4 5 6 7 8 9 10 11 12 13 14
000
FTUS45 KREV 222323
TAFTVL
TAF
KTVL 222323Z 2300/2324 19011KT P6SM VCSH SCT030 BKN040
     FM230200 19004KT P6SM SCT035 BKN150
     FM232000 19008KT P6SM FEW050 BKN180=

USA.gov is the U.S. government's official web portal to all federal, state and local government web resources and services.